Windsor Airport
CYQG : now visible

Airfield :











YOU CAN JOIN US ON...

 
LOGIN :

Register | Disclaimer

   EN    FR    IT 

 









Legend :    VFR   Marginal VFR   IFR   Intensive IFR   Very Intensive IFR
Visi :
Ceiling :
>= 8 km
>= 3000ft
5 to 8 km
1000 to 3000 ft
1500m to 5 km
500 to 1000 ft
800 to 1500m
200 to 500 ft
< 800m
< 200 ft
Symbols :   Thunderstorms  Fog  Heavy snow  Heavy precipitations  Wind > 20 kt






- Airport Elevation : 622 ft
- IATA code : YQG


CYQG - Windsor

METAR N/A
TAF TAF CYQG
Valid from the 17 at 12:00 until the 18 at 12:00 UTC


171140Z 1712/1812 14010KT P6SM BKN060 OVC100
TEMPO 1712/1713 P6SM -SHRA
FM171300 14010G20KT P6SM SCT015 OVC050
TEMPO 1713/1715 P6SM -SHRA OVC015
FM171500 18012G22KT P6SM SCT015 OVC030
TEMPO 1715/1719 P6SM -SHRA BKN015 OVC030
FM171900 21015G25KT P6SM -SHRA FEW020 BKN040
PROB30 1719/1722 VRB20G40KT 1 1/2SM +TSRAGR BR BKN010 OVC040CB
FM172300 26012G22KT P6SM -SHRA SCT015 BKN030
FM180300 26010G20KT P6SM BKN060
FM180500 27008G18KT P6SM SCT008 BKN015 RMK FCST BASED ON AUTO OBS. NXT FCST BY 171800Z
CZYZ FIR / North America



MET'MAP, your aeronautical weather chart ! - Copyright ORBIFLY December 2007 - Disclaimer

ORBIFLY MET'MAP TEAM :

Programming & Development : Alexandra Zaïnal
Original concept : Baudouin d'Aumeries
Technical & hardware support : Manuel Goepfert
Assistance : Marc-Olivier Méhu




SOURCES & CREDITS :

   NOAA       Earth
Advisory